createdAt,value
2023-01-09T00:02:59.028Z,99661.02
2023-01-09T00:06:32.180Z,99663.61
2023-01-09T00:10:16.905Z,99656.22
2023-01-09T00:14:01.536Z,99648.85
2023-01-09T00:17:45.973Z,99642.64
2023-01-09T00:21:30.357Z,99634.55
2023-01-09T00:25:14.830Z,99635.88
2023-01-09T00:28:48.770Z,99627.86
2023-01-09T00:32:33.210Z,99632.45
2023-01-09T00:36:17.601Z,99633.31
2023-01-09T00:40:02.020Z,99633.09
2023-01-09T00:43:46.503Z,99646.49
2023-01-09T00:47:32.097Z,99654.36
2023-01-09T00:51:14.301Z,99647.67
2023-01-09T00:54:51.037Z,99630.49
2023-01-09T00:58:35.537Z,99630.59
2023-01-09T01:02:20.137Z,99634.02
2023-01-09T01:06:03.244Z,99609.13
2023-01-09T01:09:47.646Z,99603.06
2023-01-09T01:13:04.768Z,99606.65
2023-01-09T01:16:33.423Z,99612.45
2023-01-09T01:20:17.889Z,99605.58
2023-01-09T01:24:03.387Z,99602.86
2023-01-09T01:27:38.211Z,99608.02
2023-01-09T01:31:22.718Z,99598.77
2023-01-09T01:35:07.297Z,99593.48
2023-01-09T01:38:50.244Z,99573.74
2023-01-09T01:42:25.042Z,99564.41
2023-01-09T01:45:57.578Z,99562.83
2023-01-09T01:49:41.989Z,99557.13
2023-01-09T01:53:20.888Z,99555.90
2023-01-09T01:57:01.621Z,99559.46
2023-01-09T02:00:41.614Z,99561.76
2023-01-09T02:04:21.296Z,99564.58
2023-01-09T02:08:05.871Z,99566.41
2023-01-09T02:11:50.450Z,99560.80
2023-01-09T02:15:34.846Z,99560.73
2023-01-09T02:19:32.008Z,99568.86
2023-01-09T02:23:59.928Z,99572.23
2023-01-09T02:27:58.340Z,99568.43
2023-01-09T02:31:49.324Z,99565.23
2023-01-09T02:35:55.507Z,99567.30
2023-01-09T02:39:33.048Z,99558.62
2023-01-09T02:43:18.718Z,99554.58
2023-01-09T02:47:03.159Z,99542.86
2023-01-09T02:50:47.632Z,99541.54
2023-01-09T02:54:15.214Z,99556.42
2023-01-09T02:57:57.996Z,99555.20
2023-01-09T03:01:32.497Z,99553.02
2023-01-09T03:05:28.974Z,99553.98
2023-01-09T03:09:06.228Z,99554.65
2023-01-09T03:12:25.475Z,99539.55
2023-01-09T03:15:59.338Z,99535.10
2023-01-09T03:19:32.323Z,99534.57
2023-01-09T03:23:16.821Z,99529.92
2023-01-09T03:26:53.911Z,99522.72
2023-01-09T03:30:28.461Z,99515.23
2023-01-09T03:34:05.344Z,99513.15
2023-01-09T03:37:48.797Z,99511.60
2023-01-09T03:41:33.241Z,99505.38
2023-01-09T03:45:10.165Z,99499.06
2023-01-09T03:48:54.545Z,99493.41
2023-01-09T03:52:31.723Z,99488.21
2023-01-09T03:56:06.087Z,99481.34
2023-01-09T03:59:30.459Z,99479.48
2023-01-09T04:03:13.007Z,99466.29
2023-01-09T04:06:40.248Z,99465.52
2023-01-09T04:10:08.429Z,99456.32
2023-01-09T04:13:52.898Z,99465.52
2023-01-09T04:17:36.942Z,99471.68
2023-01-09T04:20:36.739Z,99468.88
2023-01-09T04:24:21.305Z,99471.89
2023-01-09T04:28:04.679Z,99477.00
2023-01-09T04:31:49.244Z,99480.96
2023-01-09T04:35:23.001Z,99474.60
2023-01-09T04:38:57.743Z,99475.23
2023-01-09T04:42:25.127Z,99471.52
2023-01-09T04:46:09.776Z,99468.08
2023-01-09T04:49:50.590Z,99464.98
2023-01-09T04:53:23.485Z,99459.70
2023-01-09T04:57:08.130Z,99449.28
2023-01-09T05:00:40.890Z,99443.88
2023-01-09T05:04:14.289Z,99440.95
2023-01-09T05:07:41.452Z,99432.47
2023-01-09T05:11:04.006Z,99434.83
2023-01-09T05:14:22.276Z,99431.83
2023-01-09T05:17:29.469Z,99428.08
2023-01-09T05:21:13.820Z,99423.85
2023-01-09T05:25:00.367Z,99421.57
2023-01-09T05:28:45.130Z,99406.69
2023-01-09T05:32:00.361Z,99410.83
2023-01-09T05:35:29.440Z,99409.59
2023-01-09T05:39:04.911Z,99407.69
2023-01-09T05:42:44.291Z,99403.02
2023-01-09T05:46:21.373Z,99402.16
2023-01-09T05:50:05.956Z,99396.15
2023-01-09T05:53:33.128Z,99395.98
2023-01-09T05:57:17.670Z,99392.04
2023-01-09T06:01:02.328Z,99389.16
2023-01-09T06:04:47.097Z,99389.67
2023-01-09T06:08:25.107Z,99387.34
2023-01-09T06:12:09.760Z,99393.38
2023-01-09T06:15:38.215Z,99388.73
2023-01-09T06:19:22.962Z,99383.73
2023-01-09T06:22:55.434Z,99381.14
2023-01-09T06:26:32.949Z,99380.34
2023-01-09T06:30:18.139Z,99386.84
2023-01-09T06:34:02.803Z,99385.02
2023-01-09T06:37:47.840Z,99393.95
2023-01-09T06:41:23.194Z,99406.83
2023-01-09T06:45:07.833Z,99400.90
2023-01-09T06:48:47.695Z,99397.06
2023-01-09T06:52:14.386Z,99394.19
2023-01-09T06:55:58.972Z,99389.52
2023-01-09T06:59:43.487Z,99383.07
2023-01-09T07:03:28.306Z,99383.66
2023-01-09T07:07:12.876Z,99368.80
2023-01-09T07:10:45.190Z,99360.39
2023-01-09T07:14:29.811Z,99356.33
2023-01-09T07:18:07.069Z,99365.42
2023-01-09T07:21:41.573Z,99363.52
2023-01-09T07:25:17.556Z,99377.19
2023-01-09T07:29:01.950Z,99372.73
2023-01-09T07:32:46.382Z,99374.16
2023-01-09T07:36:30.863Z,99367.27
2023-01-09T07:40:14.958Z,99369.39
2023-01-09T07:43:59.545Z,99368.09
2023-01-09T07:47:43.992Z,99358.60
2023-01-09T07:51:22.534Z,99356.55
2023-01-09T07:55:07.038Z,99353.15
2023-01-09T07:58:43.819Z,99348.69
2023-01-09T08:02:28.637Z,99353.16
2023-01-09T08:06:13.992Z,99349.05
2023-01-09T08:09:48.867Z,99339.09
2023-01-09T08:13:26.682Z,99336.79
2023-01-09T08:17:11.169Z,99337.54
2023-01-09T08:20:57.034Z,99335.98
2023-01-09T08:24:41.540Z,99340.79
2023-01-09T08:28:26.009Z,99336.23
2023-01-09T08:32:10.468Z,99333.23
2023-01-09T08:35:56.335Z,99326.67
2023-01-09T08:39:40.941Z,99330.77
2023-01-09T08:43:23.385Z,99324.42
2023-01-09T08:47:10.774Z,99319.31
2023-01-09T08:50:53.884Z,99328.49
2023-01-09T08:54:38.316Z,99327.60
2023-01-09T08:58:28.963Z,99330.06
2023-01-09T09:02:13.554Z,99331.77
2023-01-09T09:05:58.463Z,99325.13
2023-01-09T09:09:43.140Z,99328.54
2023-01-09T09:13:33.286Z,99335.70
2023-01-09T09:17:00.719Z,99330.75
2023-01-09T09:20:45.256Z,99313.36
2023-01-09T09:24:29.907Z,99304.43
2023-01-09T09:28:14.532Z,99292.91
2023-01-09T09:32:00.687Z,99278.98
2023-01-09T09:35:45.697Z,99298.93
2023-01-09T09:39:30.250Z,99296.23
2023-01-09T09:43:23.610Z,99298.84
2023-01-09T09:46:54.833Z,99291.86
2023-01-09T09:50:42.043Z,99283.65
2023-01-09T09:54:32.640Z,99282.56
2023-01-09T09:58:17.608Z,99276.69
2023-01-09T10:01:31.990Z,99275.69
2023-01-09T10:05:16.524Z,99270.81
2023-01-09T10:09:06.733Z,99259.67
2023-01-09T10:13:07.957Z,99261.45
2023-01-09T10:16:58.249Z,99265.34
2023-01-09T10:20:25.688Z,99264.56
2023-01-09T10:24:13.210Z,99262.50
2023-01-09T10:27:46.193Z,99254.77
2023-01-09T10:31:28.447Z,99259.63
2023-01-09T10:35:12.408Z,99262.41
2023-01-09T10:38:56.930Z,99257.77
2023-01-09T10:44:06.257Z,99247.29
2023-01-09T10:47:56.990Z,99245.06
2023-01-09T10:51:41.935Z,99243.59
2023-01-09T10:55:32.898Z,99247.02
2023-01-09T10:58:57.168Z,99244.13
2023-01-09T11:02:41.935Z,99238.85
2023-01-09T11:06:37.336Z,99227.23
2023-01-09T11:10:11.228Z,99224.45
2023-01-09T11:14:03.323Z,99222.81
2023-01-09T11:17:36.759Z,99214.88
2023-01-09T11:21:24.379Z,99210.80
2023-01-09T11:25:19.600Z,99203.20
2023-01-09T11:29:04.857Z,99199.10
2023-01-09T11:33:05.364Z,99188.91
2023-01-09T11:36:50.125Z,99186.90
2023-01-09T11:40:35.008Z,99184.66
2023-01-09T11:44:19.787Z,99178.55
2023-01-09T11:48:05.427Z,99174.64
2023-01-09T11:52:01.622Z,99166.43
2023-01-09T11:55:46.199Z,99165.13
2023-01-09T11:59:53.398Z,99164.27
2023-01-09T12:03:59.547Z,99148.39
2023-01-09T12:07:48.609Z,99136.29
2023-01-09T12:11:29.556Z,99138.54
2023-01-09T12:15:23.180Z,99136.06
2023-01-09T12:19:09.194Z,99137.77
2023-01-09T12:23:02.612Z,99133.09
2023-01-09T12:26:51.725Z,99129.02
2023-01-09T12:30:26.888Z,99126.02
2023-01-09T12:34:11.683Z,99121.02
2023-01-09T12:37:37.290Z,99122.15
2023-01-09T12:41:20.614Z,99132.67
2023-01-09T12:45:05.383Z,99130.18
2023-01-09T12:49:02.751Z,99134.65
2023-01-09T12:52:53.289Z,99129.92
2023-01-09T12:56:37.830Z,99133.58
2023-01-09T13:00:27.996Z,99127.52
2023-01-09T13:04:15.263Z,99125.42
2023-01-09T13:07:59.665Z,99123.50
2023-01-09T13:11:46.845Z,99123.55
2023-01-09T13:15:40.952Z,99116.76
2023-01-09T13:19:14.296Z,99116.88
2023-01-09T13:22:58.757Z,99122.63
2023-01-09T13:26:43.416Z,99115.31
2023-01-09T13:30:28.082Z,99117.52
2023-01-09T13:34:22.491Z,99104.30
2023-01-09T13:38:13.470Z,99099.86
2023-01-09T13:42:14.132Z,99096.89
2023-01-09T13:45:58.940Z,99096.44
2023-01-09T13:49:37.130Z,99095.45
2023-01-09T13:53:36.629Z,99084.86
2023-01-09T13:57:19.100Z,99090.21
2023-01-09T14:01:15.699Z,99096.47
2023-01-09T14:04:58.356Z,99087.80
2023-01-09T14:08:45.393Z,99092.84
2023-01-09T14:12:29.937Z,99091.38
2023-01-09T14:16:28.277Z,99083.99
2023-01-09T14:20:16.387Z,99082.64
2023-01-09T14:24:06.506Z,99092.39
2023-01-09T14:27:49.476Z,99080.21
2023-01-09T14:31:34.211Z,99081.27
2023-01-09T14:35:18.628Z,99081.24
2023-01-09T14:39:08.728Z,99071.51
2023-01-09T14:42:53.263Z,99078.48
2023-01-09T14:46:37.731Z,99086.71
2023-01-09T14:50:13.455Z,99092.50
2023-01-09T14:54:09.630Z,99087.70
2023-01-09T14:57:46.652Z,99093.79
2023-01-09T15:01:36.609Z,99097.23
2023-01-09T15:05:21.142Z,99097.71
2023-01-09T15:08:58.596Z,99098.79
2023-01-09T15:12:46.018Z,99088.80
2023-01-09T15:16:30.473Z,99088.54
2023-01-09T15:20:15.043Z,99093.80
2023-01-09T15:23:51.023Z,99100.13
2023-01-09T15:27:44.575Z,99099.67
2023-01-09T15:31:29.099Z,99111.66
2023-01-09T15:35:13.591Z,99114.24
2023-01-09T15:39:03.821Z,99112.06
2023-01-09T15:42:46.578Z,99113.15
2023-01-09T15:46:30.980Z,99117.22
2023-01-09T15:50:15.513Z,99115.27
2023-01-09T15:54:00.053Z,99115.52
2023-01-09T15:57:42.903Z,99118.20
2023-01-09T16:01:39.392Z,99113.35
2023-01-09T16:05:24.024Z,99110.29
2023-01-09T16:09:00.363Z,99111.52
2023-01-09T16:12:44.939Z,99119.08
2023-01-09T16:16:23.736Z,99114.94
2023-01-09T16:20:06.397Z,99122.86
2023-01-09T16:23:54.032Z,99122.79
2023-01-09T16:27:51.137Z,99120.38
2023-01-09T16:31:35.593Z,99120.35
2023-01-09T16:35:20.218Z,99125.59
2023-01-09T16:39:04.889Z,99124.30
2023-01-09T16:42:47.626Z,99129.37
2023-01-09T16:46:32.218Z,99138.99
2023-01-09T16:50:17.169Z,99141.71
2023-01-09T16:54:01.731Z,99146.86
2023-01-09T16:57:46.387Z,99148.58
2023-01-09T17:01:30.975Z,99146.09
2023-01-09T17:05:10.662Z,99150.36
2023-01-09T17:09:04.961Z,99155.66
2023-01-09T17:12:42.089Z,99161.13
2023-01-09T17:16:27.124Z,99161.65
2023-01-09T17:20:11.846Z,99160.60
2023-01-09T17:23:57.481Z,99165.84
2023-01-09T17:27:40.473Z,99169.46
2023-01-09T17:31:25.385Z,99168.27
2023-01-09T17:35:10.237Z,99162.40
2023-01-09T17:38:55.166Z,99170.27
2023-01-09T17:42:32.606Z,99165.42
2023-01-09T17:45:58.818Z,99169.25
2023-01-09T17:49:43.589Z,99171.13
2023-01-09T17:53:27.956Z,99177.52
2023-01-09T17:57:11.514Z,99172.90
2023-01-09T18:01:01.864Z,99178.23
2023-01-09T18:04:46.472Z,99177.15
2023-01-09T18:08:30.977Z,99185.97
2023-01-09T18:12:15.421Z,99187.17
2023-01-09T18:15:53.319Z,99193.31
2023-01-09T18:19:38.086Z,99200.61
2023-01-09T18:23:22.733Z,99199.36
2023-01-09T18:27:07.293Z,99191.27
2023-01-09T18:30:44.859Z,99191.32
2023-01-09T18:34:29.217Z,99199.08
2023-01-09T18:38:06.210Z,99200.68
2023-01-09T18:41:43.287Z,99198.91
2023-01-09T18:57:21.100Z,99205.89
2023-01-09T19:01:05.707Z,99207.02
